createdAt,value
2017-06-05T00:00:40.001Z,971.74
2017-06-05T00:01:49.947Z,971.78
2017-06-05T00:02:59.898Z,971.76
2017-06-05T00:04:10.163Z,971.78
2017-06-05T00:05:20.431Z,971.78
2017-06-05T00:06:30.065Z,971.77
2017-06-05T00:07:40.016Z,971.75
2017-06-05T00:08:50.277Z,971.75
2017-06-05T00:10:00.537Z,971.72
2017-06-05T00:11:10.799Z,971.78
2017-06-05T00:12:21.059Z,971.78
2017-06-05T00:13:31.012Z,971.77
2017-06-05T00:14:40.963Z,971.77
2017-06-05T00:15:51.224Z,971.73
2017-06-05T00:17:01.176Z,971.73
2017-06-05T00:18:11.460Z,971.71
2017-06-05T00:19:21.409Z,971.72
2017-06-05T00:20:31.690Z,971.68
2017-06-05T00:21:41.636Z,971.74
2017-06-05T00:22:51.895Z,971.75
2017-06-05T00:24:02.154Z,971.76
2017-06-05T00:25:12.411Z,971.8
2017-06-05T00:26:22.671Z,971.81
2017-06-05T00:27:32.946Z,971.76
2017-06-05T00:28:43.205Z,971.78
2017-06-05T00:29:53.470Z,971.79
2017-06-05T00:31:03.723Z,971.74
2017-06-05T00:32:13.981Z,971.83
2017-06-05T00:33:23.930Z,971.8
2017-06-05T00:34:33.885Z,971.83
2017-06-05T00:35:44.149Z,971.86
2017-06-05T00:36:54.100Z,971.84
2017-06-05T00:38:04.369Z,971.85
2017-06-05T00:39:14.641Z,971.86
2017-06-05T00:40:24.275Z,971.86
2017-06-05T00:41:34.220Z,971.87
2017-06-05T00:42:44.484Z,971.86
2017-06-05T00:43:54.753Z,971.93
2017-06-05T00:45:05.027Z,971.88
2017-06-05T00:46:15.290Z,971.88
2017-06-05T00:47:25.557Z,971.9
2017-06-05T00:48:35.506Z,971.87
2017-06-05T00:49:45.776Z,971.91
2017-06-05T00:50:56.042Z,971.88
2017-06-05T00:52:05.993Z,971.85
2017-06-05T00:53:15.948Z,971.83
2017-06-05T00:54:25.901Z,971.8
2017-06-05T00:55:36.168Z,971.84
2017-06-05T00:56:46.429Z,971.84
2017-06-05T00:57:56.725Z,971.88
2017-06-05T00:59:07.000Z,971.87
2017-06-05T01:00:17.264Z,971.84
2017-06-05T01:01:27.224Z,971.9
2017-06-05T01:02:37.511Z,971.88
2017-06-05T01:03:47.150Z,971.85
2017-06-05T01:04:57.417Z,971.84
2017-06-05T01:06:07.682Z,971.81
2017-06-05T01:07:17.634Z,971.78
2017-06-05T01:08:27.904Z,971.78
2017-06-05T01:09:37.228Z,971.79
2017-06-05T01:10:47.491Z,971.83
2017-06-05T01:11:57.757Z,971.78
2017-06-05T01:13:07.706Z,971.8
2017-06-05T01:14:17.651Z,971.8
2017-06-05T01:15:27.920Z,971.81
2017-06-05T01:16:37.866Z,971.75
2017-06-05T01:17:48.139Z,971.79
2017-06-05T01:18:58.088Z,971.76
2017-06-05T01:20:08.041Z,971.73
2017-06-05T01:21:17.999Z,971.7
2017-06-05T01:22:28.263Z,971.72
2017-06-05T01:23:38.531Z,971.72
2017-06-05T01:24:48.796Z,971.72
2017-06-05T01:25:59.063Z,971.73
2017-06-05T01:27:09.332Z,971.76
2017-06-05T01:28:19.279Z,971.76
2017-06-05T01:29:29.548Z,971.77
2017-06-05T01:30:39.809Z,971.75
2017-06-05T01:31:49.756Z,971.77
2017-06-05T01:33:00.017Z,971.75
2017-06-05T01:34:10.284Z,971.71
2017-06-05T01:35:19.918Z,971.71
2017-06-05T01:36:29.549Z,971.65
2017-06-05T01:37:39.811Z,971.64
2017-06-05T01:38:50.078Z,971.67
2017-06-05T01:40:00.340Z,971.67
2017-06-05T01:41:10.599Z,971.66
2017-06-05T01:42:20.547Z,971.68
2017-06-05T01:43:30.813Z,971.67
2017-06-05T01:44:41.078Z,971.72
2017-06-05T01:45:51.024Z,971.71
2017-06-05T01:47:01.290Z,971.75
2017-06-05T01:48:10.926Z,971.76
2017-06-05T01:49:21.189Z,971.77
2017-06-05T01:50:31.450Z,971.77
2017-06-05T01:51:41.711Z,971.79
2017-06-05T01:52:51.657Z,971.77
2017-06-05T01:54:01.924Z,971.77
2017-06-05T01:55:11.873Z,971.77
2017-06-05T01:56:22.138Z,971.79
2017-06-05T01:57:32.393Z,971.75
2017-06-05T01:58:42.342Z,971.78
2017-06-05T01:59:52.669Z,971.76
2017-06-05T02:01:02.941Z,971.78
2017-06-05T02:02:12.884Z,971.79
2017-06-05T02:03:22.837Z,971.78
2017-06-05T02:04:33.103Z,971.8
2017-06-05T02:05:43.060Z,971.8
2017-06-05T02:06:53.311Z,971.79
2017-06-05T02:08:03.259Z,971.84
2017-06-05T02:09:13.208Z,971.81
2017-06-05T02:10:23.472Z,971.82
2017-06-05T02:11:33.419Z,971.84
2017-06-05T02:12:43.681Z,971.84
2017-06-05T02:13:53.987Z,971.83
2017-06-05T02:15:04.249Z,971.85
2017-06-05T02:16:14.513Z,971.86
2017-06-05T02:17:24.466Z,971.82
2017-06-05T02:18:34.734Z,971.83
2017-06-05T02:19:44.685Z,971.84
2017-06-05T02:20:54.632Z,971.79
2017-06-05T02:22:04.896Z,971.8
2017-06-05T02:23:15.156Z,971.8
2017-06-05T02:24:25.419Z,971.82
2017-06-05T02:25:35.722Z,971.78
2017-06-05T02:26:45.990Z,971.79
2017-06-05T02:27:56.256Z,971.82
2017-06-05T02:29:06.520Z,971.76
2017-06-05T02:30:16.149Z,971.73
2017-06-05T02:31:26.415Z,971.74
2017-06-05T02:32:36.684Z,971.72
2017-06-05T02:33:46.630Z,971.71
2017-06-05T02:34:56.259Z,971.72
2017-06-05T02:36:06.530Z,971.65
2017-06-05T02:37:16.788Z,971.68
2017-06-05T02:38:27.057Z,971.71
2017-06-05T02:39:37.320Z,971.7
2017-06-05T02:40:47.277Z,971.75
2017-06-05T02:41:57.218Z,971.72
2017-06-05T02:43:07.483Z,971.7
2017-06-05T02:44:17.431Z,971.72
2017-06-05T02:45:27.690Z,971.7
2017-06-05T02:46:37.949Z,971.7
2017-06-05T02:47:47.898Z,971.68
2017-06-05T02:48:57.874Z,971.68
2017-06-05T02:50:08.138Z,971.68
2017-06-05T02:51:18.087Z,971.68
2017-06-05T02:52:28.357Z,971.68
2017-06-05T02:53:38.621Z,971.66
2017-06-05T02:54:48.569Z,971.67
2017-06-05T02:55:58.834Z,971.65
2017-06-05T02:57:09.131Z,971.63
2017-06-05T02:58:19.391Z,971.59
2017-06-05T02:59:29.341Z,971.62
2017-06-05T03:00:39.621Z,971.6
2017-06-05T03:01:49.253Z,971.6
2017-06-05T03:02:59.204Z,971.62
2017-06-05T03:04:09.150Z,971.57
2017-06-05T03:05:19.409Z,971.6
2017-06-05T03:06:29.393Z,971.61
2017-06-05T03:07:39.660Z,971.59
2017-06-05T03:08:49.919Z,971.59
2017-06-05T03:10:00.208Z,971.6
2017-06-05T03:11:10.152Z,971.61
2017-06-05T03:12:20.104Z,971.59
2017-06-05T03:13:30.057Z,971.6
2017-06-05T03:14:40.322Z,971.56
2017-06-05T03:15:50.598Z,971.56
2017-06-05T03:17:00.858Z,971.57
2017-06-05T03:18:10.814Z,971.55
2017-06-05T03:19:21.091Z,971.54
2017-06-05T03:20:31.361Z,971.54
2017-06-05T03:21:41.624Z,971.53
2017-06-05T03:22:51.573Z,971.53
2017-06-05T03:24:01.838Z,971.54
2017-06-05T03:25:12.161Z,971.48
2017-06-05T03:26:22.118Z,971.52
2017-06-05T03:27:32.381Z,971.54
2017-06-05T03:28:42.016Z,971.54
2017-06-05T03:29:51.652Z,971.57
2017-06-05T03:31:01.611Z,971.56
2017-06-05T03:32:11.559Z,971.56
2017-06-05T03:33:21.823Z,971.55
2017-06-05T03:34:31.784Z,971.59
2017-06-05T03:35:42.040Z,971.57
2017-06-05T03:36:52.307Z,971.55
2017-06-05T03:38:02.570Z,971.57
2017-06-05T03:39:12.525Z,971.5
2017-06-05T03:40:22.476Z,971.55
2017-06-05T03:41:32.735Z,971.54
2017-06-05T03:42:42.683Z,971.57
2017-06-05T03:43:52.956Z,971.59
2017-06-05T03:45:03.231Z,971.58
2017-06-05T03:46:13.178Z,971.59
2017-06-05T03:47:23.436Z,971.59
2017-06-05T03:48:33.383Z,971.65
2017-06-05T03:49:43.688Z,971.66
2017-06-05T03:50:53.676Z,971.64
2017-06-05T03:52:03.645Z,971.65
2017-06-05T03:53:13.917Z,971.65
2017-06-05T03:54:24.194Z,971.66
2017-06-05T03:55:34.460Z,971.69
2017-06-05T03:56:44.723Z,971.68
2017-06-05T03:57:54.356Z,971.67
2017-06-05T03:59:04.622Z,971.72
2017-06-05T04:00:14.888Z,971.75
2017-06-05T04:01:25.156Z,971.7
2017-06-05T04:02:35.418Z,971.68
2017-06-05T04:03:45.684Z,971.68
2017-06-05T04:04:55.636Z,971.7
2017-06-05T04:06:05.590Z,971.72
2017-06-05T04:07:15.849Z,971.67
2017-06-05T04:08:26.116Z,971.7
2017-06-05T04:09:36.376Z,971.68
2017-06-05T04:10:46.008Z,971.67
2017-06-05T04:11:56.267Z,971.65
2017-06-05T04:13:06.214Z,971.75
2017-06-05T04:14:16.172Z,971.69
2017-06-05T04:15:26.136Z,971.73
2017-06-05T04:16:36.398Z,971.71
2017-06-05T04:17:46.352Z,971.74
2017-06-05T04:18:56.612Z,971.73
2017-06-05T04:20:06.564Z,971.75
2017-06-05T04:21:16.828Z,971.73
2017-06-05T04:22:27.094Z,971.75
2017-06-05T04:23:37.358Z,971.75
2017-06-05T04:24:47.622Z,971.71
2017-06-05T04:25:57.884Z,971.78
2017-06-05T04:27:08.144Z,971.75
2017-06-05T04:28:18.405Z,971.77
2017-06-05T04:29:28.669Z,971.77
2017-06-05T04:30:38.934Z,971.71
2017-06-05T04:31:48.884Z,971.78
2017-06-05T04:32:58.833Z,971.78
2017-06-05T04:34:09.093Z,971.77
2017-06-05T04:35:19.055Z,971.75
2017-06-05T04:36:29.006Z,971.78
2017-06-05T04:37:39.269Z,971.74
2017-06-05T04:38:49.536Z,971.77
2017-06-05T04:39:59.803Z,971.8
2017-06-05T04:41:10.063Z,971.8
2017-06-05T04:42:20.324Z,971.77
2017-06-05T04:43:30.278Z,971.76
2017-06-05T04:44:40.541Z,971.79
2017-06-05T04:45:50.496Z,971.83
2017-06-05T04:47:00.755Z,971.82
2017-06-05T04:48:11.019Z,971.79
2017-06-05T04:49:20.969Z,971.79
2017-06-05T04:50:31.239Z,971.79
2017-06-05T04:51:41.503Z,971.79
2017-06-05T04:52:51.768Z,971.8
2017-06-05T04:54:02.030Z,971.8
2017-06-05T04:55:11.987Z,971.82
2017-06-05T04:56:22.255Z,971.85
2017-06-05T04:57:32.526Z,971.8
2017-06-05T04:58:42.787Z,971.84
2017-06-05T04:59:53.086Z,971.85
2017-06-05T05:01:03.352Z,971.83
2017-06-05T05:02:13.298Z,971.86
2017-06-05T05:03:22.930Z,971.86
2017-06-05T05:04:33.203Z,971.9
2017-06-05T05:05:43.475Z,971.86
2017-06-05T05:06:53.423Z,971.86
2017-06-05T05:08:03.375Z,971.87
2017-06-05T05:09:13.336Z,971.88
2017-06-05T05:10:23.599Z,971.86
2017-06-05T05:11:33.551Z,971.87
2017-06-05T05:12:43.815Z,971.91
2017-06-05T05:13:54.084Z,971.9
2017-06-05T05:15:04.350Z,971.89
2017-06-05T05:16:14.613Z,971.94
2017-06-05T05:17:24.260Z,971.96
2017-06-05T05:18:34.530Z,971.97
2017-06-05T05:19:44.485Z,971.94
2017-06-05T05:20:54.752Z,972
2017-06-05T05:22:05.014Z,971.96
2017-06-05T05:23:14.964Z,972
2017-06-05T05:24:25.225Z,972.01
2017-06-05T05:25:34.862Z,971.98
2017-06-05T05:26:44.504Z,972.01
2017-06-05T05:27:54.774Z,972.04
2017-06-05T05:29:05.041Z,972.06
2017-06-05T05:30:14.997Z,972.01
2017-06-05T05:31:24.956Z,972.05
2017-06-05T05:32:35.216Z,972.03
2017-06-05T05:33:45.484Z,972.05
2017-06-05T05:34:55.752Z,972.07
2017-06-05T05:36:05.707Z,972.11
2017-06-05T05:37:15.343Z,972.1
2017-06-05T05:38:25.296Z,972.13
2017-06-05T05:39:35.251Z,972.13
2017-06-05T05:40:45.506Z,972.13
2017-06-05T05:41:55.454Z,972.13
2017-06-05T05:43:05.404Z,972.1
2017-06-05T05:44:15.678Z,972.16
2017-06-05T05:45:25.946Z,972.08
2017-06-05T05:46:36.211Z,972.11
2017-06-05T05:47:46.474Z,972.1
2017-06-05T05:48:56.114Z,972.12
2017-06-05T05:50:06.377Z,972.16
2017-06-05T05:51:16.031Z,972.14
2017-06-05T05:52:25.979Z,972.15
2017-06-05T05:53:36.238Z,972.16
2017-06-05T05:54:46.732Z,972.17
2017-06-05T05:55:57.001Z,972.19
2017-06-05T05:57:06.952Z,972.19
2017-06-05T05:58:17.217Z,972.16
2017-06-05T05:59:27.482Z,972.19
2017-06-05T06:00:37.748Z,972.22
2017-06-05T06:01:48.017Z,972.22
2017-06-05T06:02:58.286Z,972.25
2017-06-05T06:04:08.236Z,972.25
2017-06-05T06:05:18.192Z,972.24
2017-06-05T06:06:28.468Z,972.19
2017-06-05T06:07:38.735Z,972.29
2017-06-05T06:08:49.005Z,972.24
2017-06-05T06:09:59.278Z,972.28
2017-06-05T06:11:09.544Z,972.27
2017-06-05T06:12:19.802Z,972.26
2017-06-05T06:13:30.065Z,972.27
2017-06-05T06:14:40.019Z,972.28
2017-06-05T06:15:50.324Z,972.29
2017-06-05T06:16:59.962Z,972.27
2017-06-05T06:18:09.976Z,972.29
2017-06-05T06:19:19.932Z,972.28
2017-06-05T06:20:30.202Z,972.3
2017-06-05T06:21:40.472Z,972.29
2017-06-05T06:22:50.734Z,972.32
2017-06-05T06:24:00.060Z,972.29
2017-06-05T06:25:10.325Z,972.29
2017-06-05T06:26:19.961Z,972.26
2017-06-05T06:27:30.224Z,972.28
2017-06-05T06:28:40.499Z,972.28
2017-06-05T06:29:50.455Z,972.28
2017-06-05T06:31:00.419Z,972.33
2017-06-05T06:32:10.368Z,972.35
2017-06-05T06:33:20.633Z,972.36
2017-06-05T06:34:30.273Z,972.37
2017-06-05T06:35:40.542Z,972.38
2017-06-05T06:36:50.806Z,972.35
2017-06-05T06:38:01.068Z,972.43
2017-06-05T06:39:11.021Z,972.41
2017-06-05T06:40:21.304Z,972.45
2017-06-05T06:41:31.261Z,972.42
2017-06-05T06:42:41.208Z,972.46
2017-06-05T06:43:51.477Z,972.46
2017-06-05T06:45:01.749Z,972.49
2017-06-05T06:46:12.015Z,972.49
2017-06-05T06:47:22.292Z,972.49
2017-06-05T06:48:32.232Z,972.49
2017-06-05T06:49:42.183Z,972.51
2017-06-05T06:50:52.454Z,972.55
2017-06-05T06:52:02.712Z,972.55
2017-06-05T06:53:12.668Z,972.54
2017-06-05T06:54:22.932Z,972.58
2017-06-05T06:55:32.883Z,972.57
2017-06-05T06:56:43.161Z,972.56
2017-06-05T06:57:52.796Z,972.58
2017-06-05T06:59:02.745Z,972.56
2017-06-05T07:00:13.021Z,972.63
2017-06-05T07:01:23.282Z,972.61
2017-06-05T07:02:33.281Z,972.58
2017-06-05T07:03:43.555Z,972.63
2017-06-05T07:04:53.866Z,972.63
2017-06-05T07:06:03.201Z,972.64
2017-06-05T07:07:13.464Z,972.59
2017-06-05T07:08:23.735Z,972.59
2017-06-05T07:09:33.696Z,972.65
2017-06-05T07:10:43.659Z,972.6
2017-06-05T07:11:53.925Z,972.58
2017-06-05T07:13:04.195Z,972.61
2017-06-05T07:14:14.463Z,972.63
2017-06-05T07:15:24.413Z,972.63
2017-06-05T07:16:34.684Z,972.61
2017-06-05T07:17:44.950Z,972.63
2017-06-05T07:18:55.223Z,972.6
2017-06-05T07:20:05.488Z,972.61
2017-06-05T07:21:14.816Z,972.61
2017-06-05T07:22:25.088Z,972.6
2017-06-05T07:23:35.037Z,972.62
2017-06-05T07:24:45.308Z,972.63
2017-06-05T07:25:54.950Z,972.64
2017-06-05T07:27:04.913Z,972.64
2017-06-05T07:28:15.211Z,972.64
2017-06-05T07:29:24.846Z,972.69
2017-06-05T07:30:35.106Z,972.68
2017-06-05T07:31:45.054Z,972.68
2017-06-05T07:32:55.315Z,972.68
2017-06-05T07:34:05.264Z,972.67
2017-06-05T07:35:15.532Z,972.7
2017-06-05T07:36:25.814Z,972.69
2017-06-05T07:37:35.772Z,972.66
2017-06-05T07:38:46.033Z,972.68
2017-06-05T07:39:55.985Z,972.69
2017-06-05T07:41:05.935Z,972.69
2017-06-05T07:42:15.575Z,972.66
2017-06-05T07:43:24.901Z,972.69
2017-06-05T07:44:35.176Z,972.67
2017-06-05T07:45:45.450Z,972.68
2017-06-05T07:46:55.394Z,972.69
2017-06-05T07:48:05.662Z,972.68
2017-06-05T07:49:15.613Z,972.67
2017-06-05T07:50:25.884Z,972.67
2017-06-05T07:51:35.846Z,972.68
2017-06-05T07:52:46.112Z,972.66
2017-06-05T07:53:56.062Z,972.69
2017-06-05T07:55:06.325Z,972.65
2017-06-05T07:56:16.593Z,972.66
2017-06-05T07:57:26.856Z,972.68
2017-06-05T07:58:37.120Z,972.66
2017-06-05T07:59:46.757Z,972.68
2017-06-05T08:00:57.025Z,972.65
2017-06-05T08:02:07.292Z,972.76
2017-06-05T08:03:17.242Z,972.7
2017-06-05T08:04:27.512Z,972.67
2017-06-05T08:05:37.776Z,972.65
2017-06-05T08:06:47.730Z,972.68
2017-06-05T08:07:57.988Z,972.7
2017-06-05T08:09:08.253Z,972.63
2017-06-05T08:10:18.204Z,972.66
2017-06-05T08:11:28.470Z,972.69
2017-06-05T08:12:38.732Z,972.64
2017-06-05T08:13:48.996Z,972.65
2017-06-05T08:14:58.946Z,972.63
2017-06-05T08:16:09.210Z,972.65
2017-06-05T08:17:19.162Z,972.65
2017-06-05T08:18:29.115Z,972.64
2017-06-05T08:19:39.383Z,972.66
2017-06-05T08:20:49.649Z,972.65
2017-06-05T08:21:59.913Z,972.7
2017-06-05T08:23:09.863Z,972.7
2017-06-05T08:24:19.494Z,972.68
2017-06-05T08:25:29.763Z,972.68
2017-06-05T08:26:40.055Z,972.72
2017-06-05T08:27:50.000Z,972.73
2017-06-05T08:29:00.266Z,972.73
2017-06-05T08:30:10.216Z,972.71
2017-06-05T08:31:20.181Z,972.72
2017-06-05T08:32:30.458Z,972.71
2017-06-05T08:33:40.727Z,972.72
2017-06-05T08:34:50.667Z,972.72
2017-06-05T08:36:00.613Z,972.76
2017-06-05T08:37:10.568Z,972.75
2017-06-05T08:38:20.844Z,972.74
2017-06-05T08:39:31.104Z,972.71
2017-06-05T08:40:41.069Z,972.73
2017-06-05T08:41:51.340Z,972.71
2017-06-05T08:43:01.604Z,972.72
2017-06-05T08:44:11.553Z,972.68
2017-06-05T08:45:21.503Z,972.71
2017-06-05T08:46:31.771Z,972.72
2017-06-05T08:47:42.036Z,972.72
2017-06-05T08:48:52.300Z,972.72
2017-06-05T08:50:02.567Z,972.71
2017-06-05T08:51:12.518Z,972.71
2017-06-05T08:52:22.786Z,972.71
2017-06-05T08:53:33.049Z,972.72
2017-06-05T08:54:42.687Z,972.71
2017-06-05T08:55:52.641Z,972.71
2017-06-05T08:57:02.906Z,972.67
2017-06-05T08:58:12.545Z,972.7
2017-06-05T08:59:22.809Z,972.68
2017-06-05T09:00:32.449Z,972.7
2017-06-05T09:01:42.717Z,972.73
2017-06-05T09:02:52.674Z,972.71
2017-06-05T09:04:02.626Z,972.72
2017-06-05T09:05:12.892Z,972.73
2017-06-05T09:06:23.158Z,972.72
2017-06-05T09:07:33.105Z,972.72
2017-06-05T09:08:42.735Z,972.72
2017-06-05T09:09:52.691Z,972.66
2017-06-05T09:11:02.648Z,972.66
2017-06-05T09:12:12.919Z,972.65
2017-06-05T09:13:23.189Z,972.7
2017-06-05T09:14:33.143Z,972.71
2017-06-05T09:15:43.099Z,972.75
2017-06-05T09:16:53.056Z,972.71
2017-06-05T09:18:03.319Z,972.68
2017-06-05T09:19:13.588Z,972.74
2017-06-05T09:20:23.853Z,972.68
2017-06-05T09:21:33.807Z,972.67
2017-06-05T09:22:44.071Z,972.66
2017-06-05T09:23:54.337Z,972.64
2017-06-05T09:25:04.609Z,972.6
2017-06-05T09:26:14.251Z,972.66
2017-06-05T09:27:24.206Z,972.66
2017-06-05T09:28:34.680Z,972.71
2017-06-05T09:29:44.632Z,972.7
2017-06-05T09:30:54.582Z,972.72
2017-06-05T09:32:04.534Z,972.75
2017-06-05T09:33:14.797Z,972.71
2017-06-05T09:34:25.065Z,972.75
2017-06-05T09:35:35.333Z,972.74
2017-06-05T09:36:45.599Z,972.75
2017-06-05T09:37:55.556Z,972.75
2017-06-05T09:39:05.819Z,972.69
2017-06-05T09:40:16.085Z,972.69
2017-06-05T09:41:26.358Z,972.67
2017-06-05T09:42:36.311Z,972.7
2017-06-05T09:43:46.576Z,972.69
2017-06-05T09:44:56.524Z,972.68
2017-06-05T09:46:07.038Z,972.67
2017-06-05T09:47:16.681Z,972.65
2017-06-05T09:48:26.943Z,972.67
2017-06-05T09:49:36.900Z,972.64
2017-06-05T09:50:47.163Z,972.67
2017-06-05T09:51:57.436Z,972.67
2017-06-05T09:53:07.698Z,972.69
2017-06-05T09:54:17.655Z,972.68
2017-06-05T09:55:27.604Z,972.65
2017-06-05T09:56:37.871Z,972.65
2017-06-05T09:57:48.139Z,972.71
2017-06-05T09:58:58.405Z,972.65
2017-06-05T10:00:08.047Z,972.69
2017-06-05T10:01:18.002Z,972.64
2017-06-05T10:02:27.960Z,972.64
2017-06-05T10:03:38.222Z,972.67
2017-06-05T10:04:48.173Z,972.68
2017-06-05T10:05:58.129Z,972.67
2017-06-05T10:07:08.083Z,972.67
2017-06-05T10:08:18.356Z,972.65
2017-06-05T10:09:28.305Z,972.63
2017-06-05T10:10:38.257Z,972.64
2017-06-05T10:11:48.210Z,972.58
2017-06-05T10:12:58.480Z,972.59
2017-06-05T10:14:08.752Z,972.64
2017-06-05T10:15:19.021Z,972.61
2017-06-05T10:16:29.290Z,972.6
2017-06-05T10:17:39.560Z,972.63
2017-06-05T10:18:49.201Z,972.63
2017-06-05T10:19:59.154Z,972.61
2017-06-05T10:21:09.474Z,972.64
2017-06-05T10:22:19.741Z,972.57
2017-06-05T10:23:29.696Z,972.59
2017-06-05T10:24:39.959Z,972.51
2017-06-05T10:25:49.592Z,972.52
2017-06-05T10:26:59.539Z,972.47
2017-06-05T10:28:09.809Z,972.47
2017-06-05T10:29:20.071Z,972.48
2017-06-05T10:30:30.343Z,972.5
2017-06-05T10:31:40.611Z,972.55
2017-06-05T10:32:50.878Z,972.49
2017-06-05T10:34:01.138Z,972.5
2017-06-05T10:35:11.120Z,972.47
2017-06-05T10:36:21.389Z,972.45
2017-06-05T10:37:31.335Z,972.46
2017-06-05T10:38:41.845Z,972.45
2017-06-05T10:39:51.797Z,972.45
2017-06-05T10:41:01.755Z,972.48
2017-06-05T10:42:11.423Z,972.51
2017-06-05T10:43:21.691Z,972.46
2017-06-05T10:44:31.954Z,972.51
2017-06-05T10:45:41.904Z,972.46
2017-06-05T10:46:51.861Z,972.48
2017-06-05T10:48:02.126Z,972.47
2017-06-05T10:49:12.078Z,972.49
2017-06-05T10:50:22.037Z,972.46
2017-06-05T10:51:32.304Z,972.47
2017-06-05T10:52:42.573Z,972.48
2017-06-05T10:53:52.520Z,972.5
2017-06-05T10:55:02.820Z,972.48
2017-06-05T10:56:12.775Z,972.53
2017-06-05T10:57:23.039Z,972.56
2017-06-05T10:58:33.309Z,972.47
2017-06-05T10:59:43.259Z,972.43
2017-06-05T11:00:53.224Z,972.37
2017-06-05T11:02:03.180Z,972.38
2017-06-05T11:03:13.448Z,972.33
2017-06-05T11:04:23.436Z,972.29
2017-06-05T11:05:33.705Z,972.32
2017-06-05T11:06:43.973Z,972.34
2017-06-05T11:07:54.237Z,972.33
2017-06-05T11:09:04.186Z,972.32
2017-06-05T11:10:14.459Z,972.36
2017-06-05T11:11:24.415Z,972.33
2017-06-05T11:12:34.374Z,972.35
2017-06-05T11:13:44.331Z,972.3
2017-06-05T11:14:54.291Z,972.33
2017-06-05T11:16:04.559Z,972.35
2017-06-05T11:17:14.825Z,972.32
2017-06-05T11:18:25.099Z,972.3
2017-06-05T11:19:35.087Z,972.23
2017-06-05T11:20:44.733Z,972.29
2017-06-05T11:21:55.009Z,972.32
2017-06-05T11:23:04.980Z,972.34
2017-06-05T11:24:15.245Z,972.29
2017-06-05T11:25:25.513Z,972.26
2017-06-05T11:26:35.469Z,972.31
2017-06-05T11:27:45.101Z,972.33
2017-06-05T11:28:55.365Z,972.31
2017-06-05T11:30:05.633Z,972.3
2017-06-05T11:31:15.905Z,972.36
2017-06-05T11:32:26.183Z,972.46
2017-06-05T11:33:36.450Z,972.42
2017-06-05T11:34:46.408Z,972.46
2017-06-05T11:35:56.357Z,972.46
2017-06-05T11:37:06.314Z,972.53
2017-06-05T11:38:16.584Z,972.52
2017-06-05T11:39:26.855Z,972.58
2017-06-05T11:40:37.120Z,972.56
2017-06-05T11:41:47.080Z,972.65
2017-06-05T11:42:57.036Z,972.58
2017-06-05T11:44:07.310Z,972.34
2017-06-05T11:45:16.958Z,972.59
2017-06-05T11:46:27.227Z,972.36
2017-06-05T11:47:37.506Z,972.51
2017-06-05T11:48:47.466Z,972.45
2017-06-05T11:49:57.744Z,972.35
2017-06-05T11:51:07.703Z,972.39
2017-06-05T11:52:17.982Z,972.37
2017-06-05T11:53:28.259Z,972.37
2017-06-05T11:54:38.530Z,972.43
2017-06-05T11:55:48.498Z,972.59
2017-06-05T11:56:58.765Z,972.61
2017-06-05T11:58:08.408Z,972.52
2017-06-05T11:59:18.680Z,972.6
2017-06-05T12:00:28.643Z,972.47
2017-06-05T12:01:38.916Z,972.45
2017-06-05T12:02:49.187Z,972.44
2017-06-05T12:03:59.461Z,972.75
2017-06-05T12:05:09.418Z,972.61
2017-06-05T12:06:19.695Z,972.31
2017-06-05T12:07:29.349Z,972.38
2017-06-05T12:08:39.306Z,972.37
2017-06-05T12:09:49.577Z,972.8
2017-06-05T12:10:59.538Z,972.74
2017-06-05T12:12:09.819Z,972.28
2017-06-05T12:13:19.805Z,972.32
2017-06-05T12:14:29.452Z,972.73
2017-06-05T12:15:39.727Z,972.65
2017-06-05T12:16:49.992Z,972.64
2017-06-05T12:17:59.955Z,972.63
2017-06-05T12:19:09.599Z,972.59
2017-06-05T12:20:19.875Z,972.64
2017-06-05T12:21:30.151Z,972.55
2017-06-05T12:22:40.110Z,972.51
2017-06-05T12:23:50.073Z,972.54
2017-06-05T12:25:00.352Z,972.56
2017-06-05T12:26:10.319Z,972.56
2017-06-05T12:27:20.601Z,972.59
2017-06-05T12:28:30.882Z,972.5
2017-06-05T12:29:41.161Z,972.53
2017-06-05T12:30:51.445Z,972.19
2017-06-05T12:32:01.406Z,972.13
2017-06-05T12:33:11.716Z,972.62
2017-06-05T12:34:22.007Z,972.59
2017-06-05T12:35:31.971Z,972.54
2017-06-05T12:36:42.246Z,972.53
2017-06-05T12:37:52.529Z,972.57
2017-06-05T12:39:02.494Z,972.66
2017-06-05T12:40:12.453Z,972.58
2017-06-05T12:41:22.419Z,972.71
2017-06-05T12:42:32.385Z,972.6
2017-06-05T12:43:42.680Z,972.6
2017-06-05T12:44:52.645Z,972.71
2017-06-05T12:46:02.612Z,972.75
2017-06-05T12:47:12.899Z,972.67
2017-06-05T12:48:23.178Z,972.76
2017-06-05T12:49:33.462Z,972.16
2017-06-05T12:50:43.741Z,972.71
2017-06-05T12:51:54.021Z,972.72
2017-06-05T12:53:04.301Z,972.17
2017-06-05T12:54:14.585Z,972.31
2017-06-05T12:55:24.543Z,972.38
2017-06-05T12:56:34.816Z,972.8
2017-06-05T12:57:45.088Z,972.92
2017-06-05T12:58:55.050Z,972.89
2017-06-05T13:00:05.337Z,972.98
2017-06-05T13:01:15.331Z,972.94
2017-06-05T13:02:25.622Z,972.65
2017-06-05T13:03:35.902Z,972.96
2017-06-05T13:04:46.184Z,972.23
2017-06-05T13:05:56.462Z,972.3
2017-06-05T13:07:06.422Z,972.4
2017-06-05T13:08:16.386Z,972.67
2017-06-05T13:09:26.663Z,973.04
2017-06-05T13:11:50.429Z,972.97
2017-06-05T13:13:00.709Z,972.99
2017-06-05T13:14:10.671Z,973
2017-06-05T13:15:20.956Z,973.11
2017-06-05T13:16:31.245Z,973.06
2017-06-05T13:17:41.211Z,972.38
2017-06-05T13:18:51.485Z,972.33
2017-06-05T13:20:01.465Z,972.43
2017-06-05T13:21:11.752Z,972.45
2017-06-05T13:22:21.725Z,972.9
2017-06-05T13:23:31.690Z,972.42
2017-06-05T13:24:41.652Z,973.06
2017-06-05T13:25:51.938Z,973.01
2017-06-05T13:27:02.214Z,972.85
2017-06-05T13:28:12.185Z,973.11
2017-06-05T13:29:22.499Z,972.49
2017-06-05T13:30:32.455Z,972.43
2017-06-05T13:31:42.730Z,972.37
2017-06-05T13:32:52.693Z,972.56
2017-06-05T13:34:02.656Z,972.57
2017-06-05T13:35:12.932Z,972.56
2017-06-05T13:36:22.890Z,972.52
2017-06-05T13:37:32.544Z,972.66
2017-06-05T13:38:42.501Z,972.61
2017-06-05T13:39:52.772Z,973.28
2017-06-05T13:41:03.046Z,972.5
2017-06-05T13:42:13.025Z,972.67
2017-06-05T13:43:23.301Z,972.9
2017-06-05T13:44:33.611Z,972.86
2017-06-05T13:45:43.574Z,973.03
2017-06-05T13:46:53.850Z,973.06
2017-06-05T13:48:04.127Z,972.99
2017-06-05T13:49:14.398Z,972.99
2017-06-05T13:50:24.673Z,972.91
2017-06-05T13:51:34.958Z,972.92
2017-06-05T13:52:45.239Z,973
2017-06-05T13:53:55.516Z,972.97
2017-06-05T13:55:05.825Z,972.87
2017-06-05T13:56:16.125Z,972.95
2017-06-05T13:57:26.406Z,972.92
2017-06-05T13:58:36.685Z,972.89
2017-06-05T13:59:46.650Z,972.92
2017-06-05T14:00:56.939Z,972.76
2017-06-05T14:02:07.228Z,972.65
2017-06-05T14:03:17.193Z,972.94
2017-06-05T14:04:27.158Z,972.75
2017-06-05T14:05:37.131Z,972.87
2017-06-05T14:06:47.420Z,972.94
2017-06-05T14:07:57.706Z,973.05
2017-06-05T14:09:07.989Z,973.14
2017-06-05T14:10:17.639Z,973.19
2017-06-05T14:11:27.295Z,973.03
2017-06-05T14:12:37.578Z,973.02
2017-06-05T14:13:47.862Z,973.12
2017-06-05T14:14:58.148Z,973.2
2017-06-05T14:16:08.116Z,973.32
2017-06-05T14:17:18.085Z,973.43
2017-06-05T14:18:28.083Z,973.53
2017-06-05T14:19:38.058Z,973.51
2017-06-05T14:20:48.345Z,973.51
2017-06-05T14:21:58.628Z,973.51
2017-06-05T14:23:08.289Z,973.48
2017-06-05T14:24:18.569Z,973.5
2017-06-05T14:25:28.859Z,973.58
2017-06-05T14:26:39.142Z,973.64
2017-06-05T14:27:49.427Z,973.58
2017-06-05T14:28:59.713Z,973.53
2017-06-05T14:30:09.371Z,973.54
2017-06-05T14:31:19.673Z,973.73
2017-06-05T14:32:29.649Z,972.44
2017-06-05T14:33:39.933Z,972.99
2017-06-05T14:34:49.912Z,972.44
2017-06-05T14:36:00.216Z,972.57
2017-06-05T14:37:10.522Z,972.48
2017-06-05T14:38:20.180Z,972.48
2017-06-05T14:39:30.152Z,972.79